createdAt,value
2023-06-17T00:00:20.356Z,25.91
2023-06-17T00:01:22.712Z,25.90
2023-06-17T00:02:24.865Z,25.89
2023-06-17T00:03:26.723Z,25.88
2023-06-17T00:04:28.882Z,25.82
2023-06-17T00:05:30.928Z,25.83
2023-06-17T00:06:32.854Z,25.85
2023-06-17T00:07:34.675Z,25.85
2023-06-17T00:08:36.611Z,25.80
2023-06-17T00:09:42.170Z,25.84
2023-06-17T00:10:45.068Z,25.83
2023-06-17T00:11:47.687Z,25.83
2023-06-17T00:12:49.581Z,25.79
2023-06-17T00:13:53.276Z,25.77
2023-06-17T00:14:58.414Z,25.80
2023-06-17T00:16:00.437Z,25.80
2023-06-17T00:17:02.280Z,25.79
2023-06-17T00:18:07.310Z,25.77
2023-06-17T00:19:14.858Z,25.75
2023-06-17T00:20:16.840Z,25.78
2023-06-17T00:21:18.808Z,25.73
2023-06-17T00:22:20.661Z,25.76
2023-06-17T00:23:22.857Z,25.75
2023-06-17T00:24:24.767Z,25.69
2023-06-17T00:25:26.680Z,25.72
2023-06-17T00:26:28.661Z,25.69
2023-06-17T00:27:30.725Z,25.72
2023-06-17T00:28:32.629Z,25.72
2023-06-17T00:29:34.497Z,25.71
2023-06-17T00:30:37.525Z,25.70
2023-06-17T00:31:39.606Z,25.69
2023-06-17T00:32:42.253Z,25.69
2023-06-17T00:33:44.243Z,25.69
2023-06-17T00:34:46.139Z,25.69
2023-06-17T00:35:48.177Z,25.69
2023-06-17T00:36:50.044Z,25.67
2023-06-17T00:37:52.105Z,25.67
2023-06-17T00:38:53.966Z,25.66
2023-06-17T00:39:55.864Z,25.66
2023-06-17T00:40:57.718Z,25.65
2023-06-17T00:42:01.287Z,25.64
2023-06-17T00:43:03.389Z,25.66
2023-06-17T00:44:05.628Z,25.64
2023-06-17T00:45:08.123Z,25.64
2023-06-17T00:46:16.078Z,25.63
2023-06-17T00:47:18.028Z,25.61
2023-06-17T00:48:20.075Z,25.60
2023-06-17T00:49:30.882Z,25.63
2023-06-17T00:50:33.943Z,25.66
2023-06-17T00:51:36.314Z,25.65
2023-06-17T00:52:41.697Z,25.61
2023-06-17T00:53:44.716Z,25.64
2023-06-17T00:54:46.598Z,25.63
2023-06-17T00:55:48.723Z,25.62
2023-06-17T00:56:54.019Z,25.60
2023-06-17T00:57:58.550Z,25.60
2023-06-17T00:59:02.784Z,25.60
2023-06-17T01:00:10.485Z,25.61
2023-06-17T01:01:12.368Z,25.62
2023-06-17T01:02:14.861Z,25.60
2023-06-17T01:03:18.903Z,25.59
2023-06-17T01:04:20.931Z,25.59
2023-06-17T01:05:22.941Z,25.57
2023-06-17T01:06:34.860Z,25.56
2023-06-17T01:07:51.798Z,25.59
2023-06-17T01:09:02.794Z,25.62
2023-06-17T01:10:09.570Z,25.62
2023-06-17T01:11:16.191Z,25.60
2023-06-17T01:12:18.425Z,25.59
2023-06-17T01:13:20.669Z,25.57
2023-06-17T01:14:23.604Z,25.55
2023-06-17T01:15:26.006Z,25.54
2023-06-17T01:16:29.552Z,25.48
2023-06-17T01:17:31.634Z,25.53
2023-06-17T01:18:34.280Z,25.52
2023-06-17T01:19:36.614Z,25.50
2023-06-17T01:20:38.973Z,25.50
2023-06-17T01:21:40.867Z,25.50
2023-06-17T01:22:46.119Z,25.48
2023-06-17T01:23:54.653Z,25.44
2023-06-17T01:24:57.504Z,25.47
2023-06-17T01:26:00.094Z,25.50
2023-06-17T01:27:03.458Z,25.49
2023-06-17T01:28:20.639Z,25.49
2023-06-17T01:29:24.946Z,25.51
2023-06-17T01:30:30.433Z,25.43
2023-06-17T01:31:32.817Z,25.49
2023-06-17T01:32:35.815Z,25.48
2023-06-17T01:33:39.981Z,25.46
2023-06-17T01:35:03.090Z,25.52
2023-06-17T01:36:22.131Z,25.53
2023-06-17T01:37:46.452Z,25.58
2023-06-17T01:38:52.289Z,25.54
2023-06-17T01:39:57.389Z,25.50
2023-06-17T01:41:03.847Z,25.47
2023-06-17T01:42:11.057Z,25.45
2023-06-17T01:43:17.350Z,25.44
2023-06-17T01:44:20.847Z,25.44
2023-06-17T01:45:24.657Z,25.42
2023-06-17T01:46:27.342Z,25.41
2023-06-17T01:47:29.439Z,25.40
2023-06-17T01:48:31.369Z,25.38
2023-06-17T01:49:33.260Z,25.37
2023-06-17T01:50:35.189Z,25.37
2023-06-17T01:51:38.332Z,25.32
2023-06-17T01:52:40.233Z,25.36
2023-06-17T01:53:42.327Z,25.31
2023-06-17T01:54:44.362Z,25.32
2023-06-17T01:55:46.281Z,25.35
2023-06-17T01:56:48.646Z,25.35
2023-06-17T01:57:51.221Z,25.33
2023-06-17T01:58:53.118Z,25.33
2023-06-17T01:59:56.833Z,25.30
2023-06-17T02:00:58.958Z,25.32
2023-06-17T02:02:00.783Z,25.32
2023-06-17T02:03:03.157Z,25.27
2023-06-17T02:04:05.264Z,25.30
2023-06-17T02:05:07.691Z,25.32
2023-06-17T02:06:09.621Z,25.27
2023-06-17T02:07:11.733Z,25.26
2023-06-17T02:08:16.193Z,25.29
2023-06-17T02:09:18.289Z,25.30
2023-06-17T02:10:20.689Z,25.25
2023-06-17T02:11:23.132Z,25.29
2023-06-17T02:12:26.264Z,25.26
2023-06-17T02:13:28.138Z,25.22
2023-06-17T02:14:31.819Z,25.28
2023-06-17T02:15:33.929Z,25.28
2023-06-17T02:16:43.568Z,25.27
2023-06-17T02:17:45.762Z,25.26
2023-06-17T02:18:49.528Z,25.27
2023-06-17T02:19:51.336Z,25.27
2023-06-17T02:20:53.900Z,25.25
2023-06-17T02:21:56.240Z,25.24
2023-06-17T02:22:59.741Z,25.24
2023-06-17T02:24:01.611Z,25.23
2023-06-17T02:25:04.551Z,25.17
2023-06-17T02:26:06.448Z,25.20
2023-06-17T02:27:08.348Z,25.21
2023-06-17T02:28:10.866Z,25.20
2023-06-17T02:29:13.000Z,25.18
2023-06-17T02:30:15.245Z,25.17
2023-06-17T02:31:17.135Z,25.19
2023-06-17T02:32:19.079Z,25.19
2023-06-17T02:33:20.976Z,25.19
2023-06-17T02:34:22.803Z,25.17
2023-06-17T02:35:24.681Z,25.17
2023-06-17T02:36:26.725Z,25.17
2023-06-17T02:37:28.640Z,25.11
2023-06-17T02:38:31.331Z,25.17
2023-06-17T02:39:34.524Z,25.18
2023-06-17T02:40:36.602Z,25.17
2023-06-17T02:41:38.508Z,25.17
2023-06-17T02:42:40.513Z,25.17
2023-06-17T02:43:42.432Z,25.18
2023-06-17T02:44:44.356Z,25.13
2023-06-17T02:45:46.308Z,25.18
2023-06-17T02:46:48.172Z,25.14
2023-06-17T02:47:50.102Z,25.18
2023-06-17T02:48:52.141Z,25.15
2023-06-17T02:49:54.251Z,25.13
2023-06-17T02:50:56.227Z,25.19
2023-06-17T02:51:58.376Z,25.19
2023-06-17T02:53:00.297Z,25.19
2023-06-17T02:54:05.598Z,25.13
2023-06-17T02:55:07.868Z,25.20
2023-06-17T02:56:10.854Z,25.16
2023-06-17T02:57:12.713Z,25.21
2023-06-17T02:58:16.075Z,25.20
2023-06-17T02:59:20.419Z,25.21
2023-06-17T03:00:25.025Z,25.15
2023-06-17T03:01:27.403Z,25.21
2023-06-17T03:02:29.431Z,25.20
2023-06-17T03:03:37.838Z,25.20
2023-06-17T03:04:41.085Z,25.22
2023-06-17T03:05:44.412Z,25.21
2023-06-17T03:06:46.515Z,25.20
2023-06-17T03:07:49.467Z,25.21
2023-06-17T03:08:51.370Z,25.20
2023-06-17T03:09:53.245Z,25.19
2023-06-17T03:10:55.649Z,25.12
2023-06-17T03:11:58.309Z,25.17
2023-06-17T03:13:01.624Z,25.18
2023-06-17T03:14:04.261Z,25.18
2023-06-17T03:15:09.705Z,25.19
2023-06-17T03:16:12.930Z,25.19
2023-06-17T03:17:14.905Z,25.11
2023-06-17T03:18:16.827Z,25.17
2023-06-17T03:19:19.148Z,25.18
2023-06-17T03:20:22.206Z,25.19
2023-06-17T03:21:24.371Z,25.18
2023-06-17T03:22:26.506Z,25.19
2023-06-17T03:23:29.505Z,25.19
2023-06-17T03:24:31.618Z,25.19
2023-06-17T03:25:34.400Z,25.20
2023-06-17T03:26:36.478Z,25.19
2023-06-17T03:27:38.364Z,25.18
2023-06-17T03:28:40.228Z,25.19
2023-06-17T03:29:42.147Z,25.18
2023-06-17T03:30:44.968Z,25.17
2023-06-17T03:31:47.361Z,25.18
2023-06-17T03:32:49.885Z,25.08
2023-06-17T03:33:53.156Z,25.18
2023-06-17T03:34:55.471Z,25.20
2023-06-17T03:35:58.264Z,25.19
2023-06-17T03:37:00.363Z,25.19
2023-06-17T03:38:03.304Z,25.16
2023-06-17T03:39:05.154Z,25.19
2023-06-17T03:40:10.373Z,25.19
2023-06-17T03:41:14.248Z,25.19
2023-06-17T03:42:17.707Z,25.19
2023-06-17T03:43:19.855Z,25.19
2023-06-17T03:44:21.739Z,25.18
2023-06-17T03:45:24.012Z,25.18
2023-06-17T03:46:28.332Z,25.18
2023-06-17T03:47:30.776Z,25.18
2023-06-17T03:48:34.171Z,25.18
2023-06-17T03:49:36.293Z,25.17
2023-06-17T03:50:38.174Z,25.18
2023-06-17T03:51:41.480Z,25.19
2023-06-17T03:52:43.605Z,25.17
2023-06-17T03:53:46.296Z,25.17
2023-06-17T03:54:49.775Z,25.19
2023-06-17T03:55:51.674Z,25.18
2023-06-17T03:56:53.633Z,25.18
2023-06-17T03:57:55.628Z,25.13
2023-06-17T03:58:58.285Z,25.16
2023-06-17T04:00:00.209Z,25.17
2023-06-17T04:01:02.178Z,25.21
2023-06-17T04:02:04.484Z,25.20
2023-06-17T04:03:06.543Z,25.22
2023-06-17T04:04:09.347Z,25.22
2023-06-17T04:05:11.202Z,25.23
2023-06-17T04:06:14.969Z,25.18
2023-06-17T04:07:22.617Z,25.26
2023-06-17T04:08:24.833Z,25.23
2023-06-17T04:09:28.939Z,25.27
2023-06-17T04:10:31.255Z,25.27
2023-06-17T04:11:34.011Z,25.28
2023-06-17T04:12:39.992Z,25.28
2023-06-17T04:13:42.007Z,25.31
2023-06-17T04:14:43.875Z,25.19
2023-06-17T04:15:48.726Z,25.25
2023-06-17T04:16:50.623Z,25.35
2023-06-17T04:17:53.819Z,25.35
2023-06-17T04:18:58.527Z,25.35
2023-06-17T04:20:11.941Z,25.37
2023-06-17T04:21:14.555Z,25.43
2023-06-17T04:22:16.569Z,25.28
2023-06-17T04:23:18.440Z,25.39
2023-06-17T04:24:20.418Z,25.41
2023-06-17T04:25:24.176Z,25.22
2023-06-17T04:26:29.370Z,25.44
2023-06-17T04:27:31.966Z,25.41
2023-06-17T04:28:35.555Z,25.46
2023-06-17T04:29:38.600Z,25.46
2023-06-17T04:30:41.064Z,25.47
2023-06-17T04:31:47.392Z,25.50
2023-06-17T04:32:51.341Z,25.50
2023-06-17T04:33:54.092Z,25.51
2023-06-17T04:34:56.622Z,25.52
2023-06-17T04:35:59.410Z,25.52
2023-06-17T04:37:03.149Z,25.53
2023-06-17T04:38:06.202Z,25.55
2023-06-17T04:39:11.677Z,25.49
2023-06-17T04:40:14.349Z,25.55
2023-06-17T04:41:18.661Z,25.45
2023-06-17T04:42:23.963Z,25.53
2023-06-17T04:43:29.656Z,25.55
2023-06-17T04:44:32.661Z,25.58
2023-06-17T04:45:36.461Z,25.58
2023-06-17T04:46:39.735Z,25.60
2023-06-17T04:47:42.396Z,25.58
2023-06-17T04:48:44.923Z,25.58
2023-06-17T04:49:49.092Z,25.56
2023-06-17T04:50:51.050Z,25.59
2023-06-17T04:51:53.852Z,25.56
2023-06-17T04:53:04.872Z,25.60
2023-06-17T04:54:09.090Z,25.62
2023-06-17T04:55:15.251Z,25.61
2023-06-17T04:56:17.663Z,25.62
2023-06-17T04:57:20.085Z,25.57
2023-06-17T04:58:25.391Z,25.61
2023-06-17T04:59:34.293Z,25.57
2023-06-17T05:00:37.708Z,25.61
2023-06-17T05:01:39.700Z,25.61
2023-06-17T05:02:42.015Z,25.61
2023-06-17T05:03:44.489Z,25.59
2023-06-17T05:04:47.011Z,25.60
2023-06-17T05:05:48.997Z,25.60
2023-06-17T05:06:51.135Z,25.59
2023-06-17T05:07:53.116Z,25.58
2023-06-17T05:08:55.025Z,25.58
2023-06-17T05:09:56.964Z,25.59
2023-06-17T05:10:58.779Z,25.59
2023-06-17T05:12:00.779Z,25.57
2023-06-17T05:13:02.802Z,25.57
2023-06-17T05:14:06.176Z,25.54
2023-06-17T05:15:08.886Z,25.57
2023-06-17T05:16:11.057Z,25.58
2023-06-17T05:17:15.620Z,25.45
2023-06-17T05:18:17.528Z,25.57
2023-06-17T05:19:19.930Z,25.57
2023-06-17T05:20:22.038Z,25.56
2023-06-17T05:21:25.200Z,25.56
2023-06-17T05:22:29.578Z,25.57
2023-06-17T05:23:31.466Z,25.53
2023-06-17T05:24:33.387Z,25.54
2023-06-17T05:25:35.337Z,25.49
2023-06-17T05:26:37.258Z,25.54
2023-06-17T05:27:39.877Z,25.54
2023-06-17T05:28:43.576Z,25.55
2023-06-17T05:29:45.632Z,25.55
2023-06-17T05:30:47.611Z,25.50
2023-06-17T05:31:52.893Z,25.51
2023-06-17T05:32:54.998Z,25.56
2023-06-17T05:33:57.413Z,25.55
2023-06-17T05:34:59.374Z,25.51
2023-06-17T05:36:01.774Z,25.48
2023-06-17T05:37:04.924Z,25.53
2023-06-17T05:38:06.968Z,25.52
2023-06-17T05:39:08.909Z,25.48
2023-06-17T05:40:11.418Z,25.51
2023-06-17T05:41:14.034Z,25.48
2023-06-17T05:42:16.711Z,25.38
2023-06-17T05:43:20.875Z,25.52
2023-06-17T05:44:23.041Z,25.52
2023-06-17T05:45:26.409Z,25.52
2023-06-17T05:46:28.315Z,25.51
2023-06-17T05:47:30.268Z,25.45
2023-06-17T05:48:33.217Z,25.50
2023-06-17T05:49:35.068Z,25.51
2023-06-17T05:50:36.909Z,25.49
2023-06-17T05:51:38.973Z,25.32
2023-06-17T05:52:40.843Z,25.50
2023-06-17T05:53:45.050Z,25.48
2023-06-17T05:54:48.535Z,25.51
2023-06-17T05:55:51.180Z,25.51
2023-06-17T05:56:53.440Z,25.36
2023-06-17T05:57:55.626Z,25.43
2023-06-17T05:58:58.044Z,25.45
2023-06-17T06:00:14.802Z,25.52
2023-06-17T06:01:18.647Z,25.51
2023-06-17T06:02:20.782Z,25.37
2023-06-17T06:03:24.468Z,25.49
2023-06-17T06:04:26.349Z,25.48
2023-06-17T06:05:28.578Z,25.45
2023-06-17T06:06:32.295Z,25.43
2023-06-17T06:07:35.794Z,25.50
2023-06-17T06:08:37.714Z,25.38
2023-06-17T06:09:39.667Z,25.50
2023-06-17T06:10:41.762Z,25.51
2023-06-17T06:11:43.678Z,25.51
2023-06-17T06:12:45.635Z,25.53
2023-06-17T06:13:47.586Z,25.54
2023-06-17T06:14:49.578Z,25.57
2023-06-17T06:15:51.601Z,25.58
2023-06-17T06:16:54.156Z,25.61
2023-06-17T06:17:56.210Z,25.60
2023-06-17T06:18:58.088Z,25.65
2023-06-17T06:20:00.287Z,25.65
2023-06-17T06:21:02.393Z,25.71
2023-06-17T06:22:05.202Z,25.73
2023-06-17T06:23:07.108Z,25.76
2023-06-17T06:24:09.001Z,25.79
2023-06-17T06:25:13.053Z,25.81
2023-06-17T06:26:15.605Z,25.86
2023-06-17T06:27:17.722Z,25.89
2023-06-17T06:28:20.593Z,25.89
2023-06-17T06:29:22.451Z,25.95
2023-06-17T06:30:24.398Z,25.95
2023-06-17T06:31:29.853Z,26.01
2023-06-17T06:32:31.763Z,26.05
2023-06-17T06:33:36.448Z,26.08
2023-06-17T06:34:40.867Z,26.13
2023-06-17T06:35:43.727Z,26.14
2023-06-17T06:36:51.039Z,26.19
2023-06-17T06:37:53.062Z,26.21
2023-06-17T06:38:55.131Z,26.23
2023-06-17T06:39:57.006Z,26.25
2023-06-17T06:40:59.998Z,26.27
2023-06-17T06:42:03.063Z,26.31
2023-06-17T06:43:25.787Z,26.39
2023-06-17T06:44:30.609Z,26.41
2023-06-17T06:45:32.604Z,26.40
2023-06-17T06:46:35.592Z,26.42
2023-06-17T06:47:37.713Z,26.44
2023-06-17T06:48:39.567Z,26.45
2023-06-17T06:49:41.895Z,26.47
2023-06-17T06:50:44.001Z,26.35
2023-06-17T06:51:46.442Z,26.50
2023-06-17T06:52:48.427Z,26.51
2023-06-17T06:53:50.589Z,26.54
2023-06-17T06:54:52.554Z,26.54
2023-06-17T06:55:54.802Z,26.55
2023-06-17T06:56:56.967Z,26.53
2023-06-17T06:57:58.828Z,26.59
2023-06-17T06:59:01.224Z,26.59
2023-06-17T07:00:09.189Z,26.61
2023-06-17T07:01:11.984Z,26.65
2023-06-17T07:02:13.861Z,26.66
2023-06-17T07:03:15.823Z,26.66
2023-06-17T07:04:17.962Z,26.66
2023-06-17T07:05:22.836Z,26.65
2023-06-17T07:06:29.098Z,26.70
2023-06-17T07:07:31.830Z,26.70
2023-06-17T07:08:34.025Z,26.71
2023-06-17T07:09:35.886Z,26.66
2023-06-17T07:10:42.034Z,26.68
2023-06-17T07:11:45.433Z,26.67
2023-06-17T07:12:47.316Z,26.73
2023-06-17T07:13:50.965Z,26.67
2023-06-17T07:14:53.035Z,26.73
2023-06-17T07:15:55.155Z,26.72
2023-06-17T07:16:57.076Z,26.70
2023-06-17T07:18:00.053Z,26.75
2023-06-17T07:19:02.129Z,26.75
2023-06-17T07:20:06.420Z,26.76
2023-06-17T07:21:11.685Z,26.77
2023-06-17T07:22:13.557Z,26.76
2023-06-17T07:23:15.560Z,26.78
2023-06-17T07:24:17.742Z,26.73
2023-06-17T07:25:19.647Z,26.75
2023-06-17T07:26:21.551Z,26.77
2023-06-17T07:27:24.477Z,26.77
2023-06-17T07:28:26.534Z,26.77
2023-06-17T07:29:28.610Z,26.77
2023-06-17T07:30:30.836Z,26.77
2023-06-17T07:31:33.250Z,26.77
2023-06-17T07:32:35.332Z,26.78
2023-06-17T07:33:38.250Z,26.79
2023-06-17T07:34:40.091Z,26.78
2023-06-17T07:35:42.081Z,26.70
2023-06-17T07:36:43.979Z,26.79
2023-06-17T07:37:47.014Z,26.78
2023-06-17T07:38:48.932Z,26.79
2023-06-17T07:39:50.790Z,26.80
2023-06-17T07:40:52.780Z,26.79
2023-06-17T07:41:54.632Z,26.79
2023-06-17T07:42:56.528Z,26.80
2023-06-17T07:43:58.456Z,26.79
2023-06-17T07:45:00.512Z,26.80
2023-06-17T07:46:02.369Z,26.80
2023-06-17T07:47:04.630Z,26.80
2023-06-17T07:48:06.520Z,26.80
2023-06-17T07:49:08.499Z,26.72
2023-06-17T07:50:10.827Z,26.79
2023-06-17T07:51:12.682Z,26.81
2023-06-17T07:52:14.571Z,26.77
2023-06-17T07:53:16.590Z,26.80
2023-06-17T07:54:18.517Z,26.81
2023-06-17T07:56:22.143Z,26.81
2023-06-17T07:57:24.340Z,26.81
2023-06-17T07:58:26.214Z,26.81
2023-06-17T07:59:28.026Z,26.81
2023-06-17T08:00:29.936Z,26.81
2023-06-17T08:01:34.751Z,26.81
2023-06-17T08:02:36.874Z,26.78
2023-06-17T08:03:38.980Z,26.82
2023-06-17T08:04:40.933Z,26.83
2023-06-17T08:05:42.880Z,26.81
2023-06-17T08:06:45.259Z,26.78
2023-06-17T08:07:47.121Z,26.83
2023-06-17T08:08:48.977Z,26.80
2023-06-17T08:09:50.836Z,26.81
2023-06-17T08:10:52.680Z,26.82
2023-06-17T08:11:54.627Z,26.82
2023-06-17T08:12:56.648Z,26.82
2023-06-17T08:13:58.586Z,26.84
2023-06-17T08:15:00.729Z,26.82
2023-06-17T08:16:03.057Z,26.81
2023-06-17T08:17:05.711Z,26.83
2023-06-17T08:18:07.744Z,26.83
2023-06-17T08:19:09.737Z,26.83
2023-06-17T08:20:12.082Z,26.83
2023-06-17T08:21:13.930Z,26.81
2023-06-17T08:22:15.934Z,26.83
2023-06-17T08:23:18.243Z,26.78
2023-06-17T08:24:25.910Z,26.83
2023-06-17T08:25:27.944Z,26.85
2023-06-17T08:26:29.797Z,26.86
2023-06-17T08:27:32.353Z,26.86
2023-06-17T08:28:34.280Z,26.85
2023-06-17T08:29:36.535Z,26.85
2023-06-17T08:30:38.498Z,26.83
2023-06-17T08:31:42.243Z,26.80
2023-06-17T08:32:44.591Z,26.86
2023-06-17T08:33:46.429Z,26.85
2023-06-17T08:34:48.300Z,26.85
2023-06-17T08:35:50.160Z,26.84
2023-06-17T08:36:55.859Z,26.84
2023-06-17T08:37:57.693Z,26.84
2023-06-17T08:38:59.832Z,26.85
2023-06-17T08:40:01.785Z,26.86
2023-06-17T08:41:03.679Z,26.85
2023-06-17T08:42:06.024Z,26.85
2023-06-17T08:43:09.410Z,26.84
2023-06-17T08:44:13.463Z,26.84
2023-06-17T08:45:15.467Z,26.86
2023-06-17T08:46:17.634Z,26.85
2023-06-17T08:47:19.750Z,26.83
2023-06-17T08:48:21.758Z,26.84
2023-06-17T08:49:25.485Z,26.83
2023-06-17T08:50:29.237Z,26.83
2023-06-17T08:52:35.852Z,26.83
2023-06-17T08:53:38.144Z,26.85
2023-06-17T08:54:41.588Z,26.83
2023-06-17T08:55:43.906Z,26.80
2023-06-17T08:56:46.385Z,26.83
2023-06-17T08:57:50.450Z,26.82
2023-06-17T08:58:54.297Z,26.76
2023-06-17T08:59:56.636Z,26.75
2023-06-17T09:00:59.950Z,26.81
2023-06-17T09:02:03.324Z,26.82
2023-06-17T09:03:08.298Z,26.82
2023-06-17T09:04:10.937Z,26.80
2023-06-17T09:05:12.958Z,26.81
2023-06-17T09:06:31.096Z,26.84
2023-06-17T09:07:32.999Z,26.85
2023-06-17T09:08:34.907Z,26.83
2023-06-17T09:09:37.911Z,26.78
2023-06-17T09:10:46.181Z,26.82
2023-06-17T09:11:53.374Z,26.83
2023-06-17T09:12:59.921Z,26.84
2023-06-17T09:14:03.302Z,26.83
2023-06-17T09:15:09.558Z,26.83
2023-06-17T09:16:11.681Z,26.82
2023-06-17T09:17:30.665Z,26.85
2023-06-17T09:18:36.632Z,26.85
2023-06-17T09:19:41.734Z,26.83
2023-06-17T09:20:52.760Z,26.79
2023-06-17T09:21:54.888Z,26.85
2023-06-17T09:22:56.780Z,26.83
2023-06-17T09:24:01.584Z,26.81
2023-06-17T09:25:03.669Z,26.82
2023-06-17T09:26:06.375Z,26.78
2023-06-17T09:27:10.706Z,26.80
2023-06-17T09:28:17.439Z,26.81
2023-06-17T09:29:19.628Z,26.82
2023-06-17T09:30:24.392Z,26.81
2023-06-17T09:31:26.764Z,26.82
2023-06-17T09:32:39.582Z,26.83
2023-06-17T09:33:44.737Z,26.83
2023-06-17T09:34:50.193Z,26.84
2023-06-17T09:36:05.514Z,26.86
2023-06-17T09:37:08.010Z,26.86
2023-06-17T09:38:10.507Z,26.85
2023-06-17T09:39:13.485Z,26.83
2023-06-17T09:40:16.179Z,26.82
2023-06-17T09:41:19.416Z,26.81
2023-06-17T09:42:21.312Z,26.81
2023-06-17T09:43:28.460Z,26.80
2023-06-17T09:44:31.410Z,26.82
2023-06-17T09:45:34.139Z,26.82
2023-06-17T09:46:37.866Z,26.82
2023-06-17T09:47:40.544Z,26.79
2023-06-17T09:48:43.815Z,26.80
2023-06-17T09:49:49.849Z,26.80
2023-06-17T09:50:58.045Z,26.81
2023-06-17T09:52:03.661Z,26.83
2023-06-17T09:53:06.528Z,26.82
2023-06-17T09:54:09.455Z,26.83
2023-06-17T09:55:12.136Z,26.83
2023-06-17T09:56:15.831Z,26.81
2023-06-17T09:57:18.940Z,26.81
2023-06-17T09:58:22.064Z,26.81
2023-06-17T09:59:24.548Z,26.81
2023-06-17T10:00:26.780Z,26.81
2023-06-17T10:01:32.066Z,26.82
2023-06-17T10:02:34.175Z,26.78
2023-06-17T10:03:38.349Z,26.82
2023-06-17T10:04:40.636Z,26.81
2023-06-17T10:05:42.726Z,26.81
2023-06-17T10:06:47.315Z,26.80
2023-06-17T10:07:56.738Z,26.69
2023-06-17T10:08:59.326Z,26.83
2023-06-17T10:10:03.348Z,26.83
2023-06-17T10:11:05.317Z,26.78
2023-06-17T10:12:08.958Z,26.81
2023-06-17T10:13:11.140Z,26.83
2023-06-17T10:14:23.584Z,26.82
2023-06-17T10:15:26.321Z,26.84
2023-06-17T10:16:32.134Z,26.81
2023-06-17T10:17:36.668Z,26.82
2023-06-17T10:18:42.285Z,26.83
2023-06-17T10:19:46.339Z,26.83
2023-06-17T10:20:50.400Z,26.78
2023-06-17T10:21:54.965Z,26.82
2023-06-17T10:22:57.891Z,26.83
2023-06-17T10:24:01.790Z,26.81
2023-06-17T10:25:03.949Z,26.83
2023-06-17T10:26:12.048Z,26.82
2023-06-17T10:27:14.205Z,26.84
2023-06-17T10:28:16.927Z,26.83
2023-06-17T10:29:19.129Z,26.82
2023-06-17T10:30:28.165Z,26.83
2023-06-17T10:31:31.858Z,26.82
2023-06-17T10:32:33.909Z,26.84
2023-06-17T10:33:35.759Z,26.79
2023-06-17T10:34:37.654Z,26.81
2023-06-17T10:35:45.382Z,26.81
2023-06-17T10:36:52.975Z,26.83
2023-06-17T10:37:54.848Z,26.84
2023-06-17T10:38:58.719Z,26.83
2023-06-17T10:40:20.646Z,26.89
2023-06-17T10:41:23.880Z,26.86
2023-06-17T10:42:26.352Z,26.87
2023-06-17T10:43:30.496Z,26.85
2023-06-17T10:44:35.296Z,26.85
2023-06-17T10:45:57.228Z,26.91
2023-06-17T10:46:59.119Z,26.89
2023-06-17T10:48:29.566Z,26.92
2023-06-17T10:49:40.464Z,26.94
2023-06-17T10:50:51.177Z,26.91
2023-06-17T10:52:00.286Z,26.89
2023-06-17T10:53:02.166Z,26.91
2023-06-17T10:54:04.527Z,26.84
2023-06-17T10:55:06.614Z,26.87
2023-06-17T10:56:08.513Z,26.86
2023-06-17T10:57:10.940Z,26.85
2023-06-17T10:58:12.748Z,26.85
2023-06-17T10:59:14.601Z,26.85
2023-06-17T11:00:16.813Z,26.79
2023-06-17T11:01:18.651Z,26.83
2023-06-17T11:02:21.941Z,26.81
2023-06-17T11:03:23.990Z,26.85
2023-06-17T11:04:29.572Z,26.83
2023-06-17T11:05:37.684Z,26.85
2023-06-17T11:06:39.493Z,26.87
2023-06-17T11:07:41.289Z,26.80
2023-06-17T11:08:43.252Z,26.85
2023-06-17T11:09:45.080Z,26.84
2023-06-17T11:10:46.963Z,26.85
2023-06-17T11:11:48.926Z,26.85
2023-06-17T11:12:51.741Z,26.84
2023-06-17T11:13:53.676Z,26.85
2023-06-17T11:14:56.052Z,26.85
2023-06-17T11:15:57.971Z,26.85
2023-06-17T11:16:59.935Z,26.85
2023-06-17T11:18:03.811Z,26.85
2023-06-17T11:19:07.400Z,26.85
2023-06-17T11:20:09.650Z,26.86
2023-06-17T11:21:11.943Z,26.83
2023-06-17T11:22:13.798Z,26.87
2023-06-17T11:23:16.216Z,26.85
2023-06-17T11:24:18.759Z,26.86
2023-06-17T11:25:24.520Z,26.85
2023-06-17T11:26:35.040Z,26.89
2023-06-17T11:27:39.796Z,26.89
2023-06-17T11:28:42.523Z,26.88
2023-06-17T11:29:44.891Z,26.87
2023-06-17T11:30:47.186Z,26.87
2023-06-17T11:31:49.086Z,26.86
2023-06-17T11:32:51.561Z,26.86
2023-06-17T11:33:58.966Z,26.78
2023-06-17T11:35:01.206Z,26.83
2023-06-17T11:36:04.872Z,26.85
2023-06-17T11:37:12.190Z,26.86
2023-06-17T11:38:14.564Z,26.88
2023-06-17T11:39:17.115Z,26.86
2023-06-17T11:40:19.785Z,26.86
2023-06-17T11:41:23.181Z,26.85
2023-06-17T11:42:25.339Z,26.85
2023-06-17T11:43:27.942Z,26.85
2023-06-17T11:44:31.506Z,26.83
2023-06-17T11:45:36.315Z,26.81
2023-06-17T11:46:38.874Z,26.86
2023-06-17T11:47:41.107Z,26.81
2023-06-17T11:48:46.600Z,26.84
2023-06-17T11:49:48.474Z,26.85
2023-06-17T11:50:51.100Z,26.85
2023-06-17T11:51:53.049Z,26.85
2023-06-17T11:52:56.107Z,26.84
2023-06-17T11:53:58.170Z,26.84
2023-06-17T11:55:00.026Z,26.77
2023-06-17T11:56:06.776Z,26.83
2023-06-17T11:57:08.863Z,26.86
2023-06-17T11:58:11.317Z,26.86
2023-06-17T11:59:13.356Z,26.85
2023-06-17T12:00:15.738Z,26.85
2023-06-17T12:01:18.086Z,26.85
2023-06-17T12:02:20.425Z,26.85
2023-06-17T12:03:22.613Z,26.85
2023-06-17T12:04:24.607Z,26.84
2023-06-17T12:05:29.943Z,26.84
2023-06-17T12:06:33.565Z,26.84
2023-06-17T12:07:40.766Z,26.85
2023-06-17T12:08:43.986Z,26.86
2023-06-17T12:09:54.467Z,26.87
2023-06-17T12:10:56.561Z,26.85
2023-06-17T12:12:00.152Z,26.81
2023-06-17T12:13:02.039Z,26.86
2023-06-17T12:14:12.943Z,26.87
2023-06-17T12:15:17.119Z,26.88
2023-06-17T12:16:24.891Z,26.86
2023-06-17T12:17:27.811Z,26.89
2023-06-17T12:18:29.877Z,26.89
2023-06-17T12:19:32.457Z,26.89
2023-06-17T12:20:36.722Z,26.86
2023-06-17T12:21:39.717Z,26.84
2023-06-17T12:22:42.301Z,26.90
2023-06-17T12:23:45.249Z,26.92
2023-06-17T12:24:48.557Z,26.73
2023-06-17T12:25:50.537Z,26.89
2023-06-17T12:26:52.353Z,26.93
2023-06-17T12:27:54.206Z,26.93
2023-06-17T12:28:57.817Z,26.93
2023-06-17T12:30:03.443Z,26.91
2023-06-17T12:31:05.296Z,26.96
2023-06-17T12:32:07.518Z,26.96
2023-06-17T12:33:09.377Z,26.96
2023-06-17T12:34:11.372Z,26.93
2023-06-17T12:35:13.737Z,26.92
2023-06-17T12:36:17.721Z,26.96
2023-06-17T12:37:24.313Z,26.95
2023-06-17T12:38:32.457Z,26.97
2023-06-17T12:39:37.062Z,27.00
2023-06-17T12:40:38.885Z,26.98
2023-06-17T12:41:40.684Z,26.99
2023-06-17T12:42:42.592Z,27.00
2023-06-17T12:44:47.920Z,27.00
2023-06-17T12:45:49.865Z,27.01
2023-06-17T12:46:52.031Z,26.97
2023-06-17T12:47:54.235Z,26.99
2023-06-17T12:48:56.132Z,27.00
2023-06-17T12:49:57.974Z,27.00
2023-06-17T12:50:59.824Z,27.00
2023-06-17T12:52:02.159Z,27.01
2023-06-17T12:53:04.026Z,27.00
2023-06-17T12:54:06.250Z,27.01
2023-06-17T12:55:08.824Z,27.01
2023-06-17T12:56:10.919Z,26.99
2023-06-17T12:57:15.566Z,27.01
2023-06-17T12:58:17.958Z,27.02
2023-06-17T12:59:19.783Z,27.03
2023-06-17T13:00:22.323Z,26.98
2023-06-17T13:01:24.194Z,27.02
2023-06-17T13:02:26.061Z,26.98
2023-06-17T13:03:27.981Z,27.02
2023-06-17T13:04:30.319Z,27.02
2023-06-17T13:05:32.173Z,27.01
2023-06-17T13:06:34.251Z,27.02
2023-06-17T13:07:36.126Z,27.02
2023-06-17T13:08:38.740Z,27.03
2023-06-17T13:09:40.718Z,27.04
2023-06-17T13:10:42.714Z,27.03
2023-06-17T13:11:44.725Z,26.96
2023-06-17T13:12:46.622Z,27.02
2023-06-17T13:13:48.472Z,26.99
2023-06-17T13:14:50.590Z,27.02
2023-06-17T13:15:53.657Z,26.95
2023-06-17T13:16:55.922Z,27.03
2023-06-17T13:17:57.863Z,27.03
2023-06-17T13:19:00.149Z,27.02
2023-06-17T13:20:04.483Z,27.03
2023-06-17T13:21:06.465Z,27.04
2023-06-17T13:22:08.301Z,27.03
2023-06-17T13:23:10.204Z,27.03
2023-06-17T13:24:12.150Z,27.02
2023-06-17T13:25:14.116Z,27.02
2023-06-17T13:26:18.725Z,27.02
2023-06-17T13:27:20.704Z,27.04
2023-06-17T13:28:22.962Z,27.04
2023-06-17T13:29:24.779Z,27.03
2023-06-17T13:30:26.971Z,27.02
2023-06-17T13:31:29.349Z,27.02
2023-06-17T13:32:31.596Z,26.95
2023-06-17T13:33:33.798Z,27.03
2023-06-17T13:34:35.710Z,27.03
2023-06-17T13:35:37.552Z,27.02
2023-06-17T13:36:43.314Z,27.02
2023-06-17T13:37:46.312Z,27.03
2023-06-17T13:38:48.175Z,27.04